• Join FlightAware (Why Join?)
  • Login
  • US Flag 
12:33AM EDT


 

Airport Tracker/Info


-or-


 

Live Flight TrackerFlight Track Log ✈ UPS2592 ✈ 17-Sep-2013 ✈ KSDF - KBIL

Flight Track Log - Related Links

Times and Time Zones

All times are in EDT time to prevent confusion due to time zone crossing. See the UPS2592 flight status page for this flight to view local times or setup timezone preferences in your user account.

Time Position Orientation Groundspeed Altitude Reporting Facility
EDT Latitude Longitude Course Direction KTS MPH feet Rate Location/Type
04:38PM 38.1810 -85.7470 218° Southwest 80 92  Level FlightAware
04:39PM 38.1700 -85.7430 164° South 165 190 1,800 Level FlightAware
04:39PM 38.1510 -85.7370 166° South 177 204 1,300 3,120 Climbing FlightAware
04:39PM 38.1330 -85.7330 170° South 188 216 2,300 2,160 Climbing FlightAware
04:40PM 38.1170 -85.7320 177° South 212 244 2,700 1,500 Climbing FlightAware
04:40PM 38.1050 -85.7330 184° South 230 265 3,000 1,200 Climbing FlightAware
04:40PM 38.0980 -85.7360 199° South 241 277 3,100 1,080 Climbing FlightAware
04:40PM 38.0900 -85.7430 215° Southwest 257 296 3,300 1,860 Climbing FlightAware
04:40PM 38.0840 -85.7530 233° Southwest 266 306 3,600 2,460 Climbing FlightAware
04:40PM 38.0810 -85.7580 233° Southwest 267 307 3,800 3,480 Climbing FlightAware
04:40PM 38.0780 -85.7700 252° West 270 311 4,300 3,480 Climbing FlightAware
04:40PM 38.0770 -85.7850 265° West 272 313 4,800 3,420 Climbing FlightAware
04:41PM 38.0770 -85.8020 270° West 272 313 5,500 3,000 Climbing FlightAware
04:41PM 38.0790 -85.8280 276° West 281 323 6,200 2,820 Climbing FlightAware
04:41PM 38.0840 -85.8400 298° West 284 327 6,600 3,420 Climbing FlightAware
04:41PM 38.0940 -85.8550 310° West 286 329 7,300 3,180 Climbing FlightAware
04:42PM 38.1110 -85.8680 329° Northwest 292 336 8,000 3,000 Climbing FlightAware
04:42PM 38.1200 -85.8710 345° North 291 335 8,400 3,180 Climbing FlightAware
04:42PM 38.1510 -85.8780 350° North 297 342 9,600 2,400 Climbing FlightAware
04:43PM 38.1990 -85.8880 351° North 329 379 10,700 1,560 Climbing FlightAware
04:43PM 38.2530 -85.8990 351° North 370 426 11,400 1,560 Climbing FlightAware
04:44PM 38.3170 -85.9130 350° North 393 452 12,500 2,100 Climbing FlightAware
04:44PM 38.3530 -85.9220 349° North 398 458 13,400 2,460 Climbing FlightAware
04:44PM 38.3800 -85.9370 336° Northwest 400 460 14,000 2,400 Climbing FlightAware
04:45PM 38.4000 -85.9580 321° Northwest 400 460 14,600 2,280 Climbing FlightAware
04:45PM 38.4540 -86.0110 322° Northwest 416 479 15,900 2,160 Climbing FlightAware
04:46PM 38.5060 -86.0510 329° Northwest 425 489 17,100 2,160 Climbing FlightAware
04:46PM 38.5640 -86.0980 328° Northwest 433 498 18,300 2,100 Climbing FlightAware
04:47PM 38.6270 -86.1470 329° Northwest 442 509 19,600 2,040 Climbing FlightAware
04:47PM 38.6900 -86.1970 328° Northwest 450 518 20,800 1,320 Climbing FlightAware
04:48PM 38.7720 -86.2630 328° Northwest 454 522 21,500 1,680 Climbing FlightAware
04:48PM 38.7780 -86.2770 299° West 457 526 22,300 3,000 Climbing FlightAware
04:49PM 38.8380 -86.3580 314° West 464 534 23,600 1,920 Climbing FlightAware
04:50PM 38.8870 -86.4240 314° West 462 532 24,700 1,920 Climbing FlightAware
04:50PM 38.9410 -86.4980 313° West 459 528 25,900 1,680 Climbing FlightAware
04:51PM 38.9880 -86.5610 314° West 461 531 26,700 1,260 Climbing FlightAware
04:51PM 39.0420 -86.6340 314° West 470 541 27,400 1,440 Climbing FlightAware
04:52PM 39.0970 -86.7110 313° West 464 534 28,500 1,680 Climbing FlightAware
04:52PM 39.1440 -86.7750 313° West 463 533 29,400 1,260 Climbing FlightAware
04:53PM 39.1970 -86.8450 314° West 465 535 30,000 480 Climbing FlightAware
04:54PM 39.2500 -86.9200 312° West 463 533 30,000  Level FlightAware
04:54PM 39.2960 -86.9820 314° West 459 528 30,000  Level FlightAware
04:55PM 39.3500 -87.0560 313° West 458 527 30,000  Level FlightAware
04:55PM 39.4020 -87.1280 313° West 457 526 30,000  Level FlightAware
04:56PM 39.4530 -87.1980 313° West 459 528 30,000  Level FlightAware
04:57PM 39.5010 -87.2670 312° West 458 527 30,000  Level FlightAware
04:57PM 39.5550 -87.3420 313° West 454 522 30,000  Level FlightAware
04:58PM 39.5920 -87.3990 310° West 452 520 30,000  Level FlightAware
04:58PM 39.6410 -87.4700 312° West 452 520 30,000  Level FlightAware
04:59PM 39.6960 -87.5490 312° West 453 521 30,000  Level FlightAware
04:59PM 39.7450 -87.6220 311° West 450 518 30,000  Level FlightAware
05:00PM 39.7940 -87.6930 312° West 449 517 30,000  Level FlightAware
05:01PM 39.8390 -87.7600 311° West 452 520 30,000  Level FlightAware
05:01PM 39.8920 -87.8370 312° West 449 517 30,000  Level FlightAware
05:02PM 39.9390 -87.9060 312° West 448 516 30,000  Level FlightAware
05:02PM 39.9870 -87.9770 311° West 447 514 30,000  Level FlightAware
05:03PM 40.0300 -88.0530 306° West 445 512 30,000  Level FlightAware
05:04PM 40.0670 -88.1270 303° West 445 512 30,000  Level FlightAware
05:04PM 40.1080 -88.2050 305° West 445 512 30,000  Level FlightAware
05:05PM 40.1480 -88.2830 304° West 447 514 30,000  Level FlightAware
05:05PM 40.1930 -88.3710 304° West 449 517 30,000  Level FlightAware
05:06PM 40.2290 -88.4440 303° West 449 517 30,000  Level FlightAware
05:06PM 40.2700 -88.5230 304° West 447 514 30,000  Level FlightAware
05:07PM 40.3100 -88.6020 304° West 449 517 30,000  Level FlightAware
05:08PM 40.3500 -88.6820 303° West 452 520 30,000  Level FlightAware
05:08PM 40.3900 -88.7600 304° West 453 521 30,000  Level FlightAware
05:09PM 40.4280 -88.8380 303° West 452 520 30,000  Level FlightAware
05:09PM 40.4750 -88.9290 304° West 451 519 30,000  Level FlightAware
05:10PM 40.5120 -89.0050 303° West 451 519 30,000  Level FlightAware
05:10PM 40.5410 -89.0640 303° West 450 518 30,000  Level FlightAware
05:11PM 40.5940 -89.1700 303° West 452 520 30,000  Level FlightAware
05:12PM 40.6370 -89.2570 303° West 451 519 30,000  Level FlightAware
05:12PM 40.6760 -89.3360 303° West 452 520 30,000 720 Level FlightAware
05:13PM 40.7170 -89.4190 303° West 447 514 30,900 1,560 Climbing FlightAware
05:14PM 40.7530 -89.4910 303° West 439 505 31,800 960 Climbing FlightAware
05:14PM 40.7910 -89.5700 302° West 441 507 32,000 120 Climbing FlightAware
05:15PM 40.8300 -89.6490 303° West 439 505 32,000  Level FlightAware
05:15PM 40.8690 -89.7280 303° West 438 504 32,000  Level FlightAware
05:16PM 40.9080 -89.8090 303° West 435 501 32,000  Level FlightAware
05:16PM 40.9470 -89.8900 303° West 434 499 32,000  Level FlightAware
05:17PM 40.9840 -89.9660 303° West 435 501 32,000  Level FlightAware
05:18PM 41.0120 -90.0300 300° West 434 499 32,000  Level FlightAware
05:18PM 41.0440 -90.1100 298° West 437 503 32,000  Level FlightAware
05:19PM 41.0790 -90.1980 298° West 438 504 32,000  Level FlightAware
05:19PM 41.1130 -90.2840 298° West 438 504 32,000  Level FlightAware
05:20PM 41.1440 -90.3620 298° West 439 505 32,000  Level FlightAware
05:20PM 41.1800 -90.4500 299° West 439 505 32,000  Level FlightAware
05:21PM 41.2120 -90.5330 297° West 437 503 32,000  Level FlightAware
05:22PM 41.2410 -90.6070 298° West 437 503 32,000  Level FlightAware
05:22PM 41.2770 -90.6980 298° West 437 503 32,000  Level FlightAware
05:23PM 41.3070 -90.7740 298° West 439 505 32,000  Level FlightAware
05:23PM 41.3420 -90.8650 297° West 439 505 32,000  Level FlightAware
05:24PM 41.3760 -90.9520 298° West 440 506 32,000  Level FlightAware
05:25PM 41.4110 -91.0410 298° West 441 507 32,000  Level FlightAware
05:25PM 41.4410 -91.1190 297° West 445 512 32,000  Level FlightAware
05:26PM 41.4690 -91.1920 297° West 445 512 32,000  Level FlightAware
05:26PM 41.5120 -91.3040 297° West 444 511 32,000  Level FlightAware
05:27PM 41.5440 -91.3870 297° West 445 512 32,000  Level FlightAware
05:28PM 41.5780 -91.4750 297° West 446 513 32,000  Level FlightAware
05:28PM 41.6120 -91.5660 297° West 445 512 32,000  Level FlightAware
05:29PM 41.6470 -91.6550 298° West 447 514 32,000  Level FlightAware
05:29PM 41.6740 -91.7290 296° West 447 514 32,000  Level FlightAware
05:30PM 41.7090 -91.8200 297° West 448 516 32,000  Level FlightAware
05:30PM 41.7410 -91.9070 296° West 450 518 32,000  Level FlightAware
05:31PM 41.7730 -91.9920 297° West 451 519 32,000  Level FlightAware
05:32PM 41.8100 -92.0890 297° West 451 519 32,000  Level FlightAware
05:32PM 41.8410 -92.1710 297° West 449 517 32,000  Level FlightAware
05:33PM 41.8730 -92.2580 296° West 447 514 32,000  Level FlightAware
05:33PM 41.9070 -92.3520 296° West 443 510 32,000  Level FlightAware
05:34PM 41.9360 -92.4290 297° West 441 507 32,000  Level FlightAware
05:35PM 41.9670 -92.5150 296° West 441 507 32,000  Level FlightAware
05:35PM 42.0020 -92.6080 297° West 441 507 32,000  Level FlightAware
05:36PM 42.0310 -92.6870 296° West 442 509 32,000  Level FlightAware
05:36PM 42.0630 -92.7750 296° West 444 511 32,000  Level FlightAware
05:37PM 42.0940 -92.8600 296° West 445 512 32,000  Level FlightAware
05:37PM 42.1037 -92.8872 296° West 445 512 32,000  Level FlightAware ADS-B
05:38PM 42.1600 -93.0420 296° West 447 514 32,000  Level FlightAware
05:39PM 42.1920 -93.1320 296° West 449 517 32,000  Level FlightAware
05:39PM 42.2200 -93.2110 296° West 450 518 32,000  Level FlightAware
05:40PM 42.2530 -93.3020 296° West 451 519 32,000  Level FlightAware
05:40PM 42.2576 -93.3144 296° West 451 519 32,000  Level FlightAware ADS-B
05:40PM 42.2860 -93.3930 296° West 449 517 32,000  Level FlightAware
05:41PM 42.3190 -93.4860 296° West 447 514 32,000  Level FlightAware
05:42PM 42.3470 -93.5640 296° West 445 512 32,000  Level FlightAware
05:42PM 42.3800 -93.6600 295° West 445 512 32,000  Level FlightAware
05:43PM 42.4100 -93.7430 296° West 446 513 32,000  Level FlightAware
05:43PM 42.4400 -93.8280 296° West 448 516 32,000  Level FlightAware
05:44PM 42.4720 -93.9200 295° West 450 518 32,000  Level FlightAware
05:44PM 42.4837 -93.9532 296° West 451 519 32,000  Level FlightAware ADS-B
05:44PM 42.5029 -94.0096 295° West 452 520 32,000  Level FlightAware ADS-B
05:45PM 42.5300 -94.1070 291° West 451 519 32,000  Level FlightAware
05:46PM 42.5533 -94.1897 291° West 452 520 32,000  Level FlightAware ADS-B
05:46PM 42.5834 -94.2956 291° West 452 520 32,000  Level FlightAware ADS-B
05:47PM 42.6080 -94.3860 290° West 452 520 32,000  Level FlightAware
05:47PM 42.6320 -94.4710 291° West 453 521 32,000  Level FlightAware
05:48PM 42.6512 -94.5396 291° West 453 521 32,000  Level FlightAware ADS-B
05:48PM 42.6752 -94.6277 290° West 453 521 32,000  Level FlightAware ADS-B
05:49PM 42.6975 -94.7077 291° West 454 522 32,000  Level FlightAware ADS-B
05:50PM 42.7370 -94.8550 290° West 456 525 32,000  Level FlightAware
05:50PM 42.7468 -94.8899 291° West 456 525 32,000  Level FlightAware ADS-B
05:50PM 42.7696 -94.9734 290° West 456 525 32,000  Level FlightAware ADS-B
05:51PM 42.7927 -95.0533 292° West 456 525 32,000  Level FlightAware ADS-B
05:51PM 42.8170 -95.1300 293° West 455 524 32,000  Level FlightAware
05:52PM 42.8486 -95.2392 292° West 456 525 32,000  Level FlightAware ADS-B
05:53PM 42.8720 -95.3190 292° West 454 522 32,000  Level FlightAware ADS-B
05:53PM 42.8954 -95.3985 292° West 453 521 32,000  Level FlightAware ADS-B
05:54PM 42.9260 -95.5040 292° West 452 520 32,000  Level FlightAware
05:54PM 42.9491 -95.5841 292° West 454 522 32,000  Level FlightAware ADS-B
05:55PM 42.9723 -95.6638 292° West 452 520 32,000  Level FlightAware ADS-B
05:55PM 42.9954 -95.7434 292° West 451 519 32,000  Level FlightAware ADS-B
05:55PM 42.9900 -95.7248 112° Southeast 451 519 32,000  Level FlightAware ADS-B
05:56PM 43.0320 -95.8700 292° West 449 517 32,000  Level FlightAware
05:56PM 43.0484 -95.9260 292° West 450 518 32,000  Level FlightAware ADS-B
05:57PM 43.0720 -96.0104 291° West 450 518 32,000  Level FlightAware ADS-B
05:58PM 43.0947 -96.0899 291° West 449 517 32,000  Level FlightAware ADS-B
05:58PM 43.1370 -96.2410 291° West 448 516 32,000  Level FlightAware
05:59PM 43.1458 -96.2700 293° West 450 518 32,000  Level FlightAware ADS-B
05:59PM 43.1693 -96.3525 291° West 450 518 32,000  Level FlightAware ADS-B
06:00PM 43.1921 -96.4350 291° West 452 520 32,000  Level FlightAware ADS-B
06:00PM 43.2140 -96.5120 291° West 453 521 32,000  Level FlightAware
06:01PM 43.2441 -96.6200 291° West 454 522 32,000  Level FlightAware ADS-B
06:02PM 43.2960 -96.8060 291° West 454 522 32,000  Level FlightAware
06:03PM 43.3210 -96.8970 291° West 453 521 32,000  Level FlightAware
06:03PM 43.3440 -96.9807 291° West 454 522 32,000  Level FlightAware ADS-B
06:04PM 43.3663 -97.0614 291° West 454 522 32,000  Level FlightAware ADS-B
06:04PM 43.3990 -97.1830 290° West 454 522 32,000  Level FlightAware
06:05PM 43.4230 -97.2720 290° West 454 522 32,000  Level FlightAware
06:05PM 43.4500 -97.3700 291° West 455 524 32,000  Level FlightAware
06:06PM 43.4770 -97.4730 290° West 455 524 32,000  Level FlightAware
06:07PM 43.5010 -97.5580 291° West 455 524 32,000  Level FlightAware
06:07PM 43.5220 -97.6390 290° West 455 524 32,000  Level FlightAware
06:08PM 43.5440 -97.7230 290° West 455 524 32,000  Level FlightAware
06:08PM 43.5660 -97.8090 289° West 455 524 32,000  Level FlightAware
06:09PM 43.5880 -97.8920 290° West 455 524 32,000  Level FlightAware
06:10PM 43.6294 -98.0431 291° West 453 521 32,000  Level FlightAware ADS-B
06:10PM 43.6547 -98.1407 290° West 453 521 32,000  Level FlightAware ADS-B
06:11PM 43.6560 -98.1480 284° West 455 524 32,000  Level FlightAware
06:12PM 43.6810 -98.2430 290° West 455 524 32,000  Level FlightAware
06:12PM 43.7030 -98.3270 290° West 455 524 32,000  Level FlightAware
06:13PM 43.7230 -98.4060 289° West 455 524 32,000  Level FlightAware
06:13PM 43.7450 -98.4890 290° West 455 524 32,000  Level FlightAware
06:14PM 43.7680 -98.5760 290° West 455 524 32,000  Level FlightAware
06:14PM 43.7900 -98.6590 290° West 455 524 32,000  Level FlightAware
06:15PM 43.8120 -98.7430 290° West 455 524 32,000  Level FlightAware
06:16PM 43.8340 -98.8270 290° West 455 524 32,000  Level FlightAware
06:16PM 43.8560 -98.9110 290° West 455 524 32,000  Level FlightAware
06:17PM 43.9325 -99.2269 290° West 450 518 32,000  Level Denver Center
06:18PM 43.9561 -99.3269 288° West 450 518 32,000  Level Minneapolis Center
06:19PM 44.0056 -99.5258 289° West 453 521 32,000  Level Minneapolis Center
06:20PM 44.0547 -99.7247 289° West 453 521 32,000  Level Minneapolis Center
06:21PM 44.0950 -99.8914 289° West 453 521 32,000  Level Minneapolis Center
06:22PM 44.1353 -100.0567 289° West 451 519 32,000  Level Minneapolis Center
06:23PM 44.1747 -100.2217 288° West 449 517 32,000  Level Minneapolis Center
06:24PM 44.2136 -100.3867 288° West 449 517 32,000  Level Minneapolis Center
06:25PM 44.2606 -100.5875 288° West 451 519 32,000  Level Minneapolis Center
06:26PM 44.3000 -100.7542 288° West 451 519 32,000  Level Minneapolis Center
06:27PM 44.3389 -100.9200 288° West 450 518 32,000  Level Minneapolis Center
06:28PM 44.3761 -101.0853 288° West 448 516 32,000  Level Minneapolis Center
06:29PM 44.4131 -101.2519 287° West 447 514 32,000  Level Minneapolis Center
06:30PM 44.4503 -101.4183 287° West 447 514 32,000  Level Minneapolis Center
06:31PM 44.4881 -101.5839 288° West 447 514 32,000  Level Minneapolis Center
06:32PM 44.5333 -101.7808 288° West 445 512 32,000  Level Minneapolis Center
06:33PM 44.5736 -101.9481 289° West 447 514 32,000  Level Minneapolis Center
06:34PM 44.6100 -102.1128 287° West 444 511 32,000  Level Minneapolis Center
06:35PM 44.6461 -102.2783 287° West 443 510 32,000  Level Minneapolis Center
06:37PM 44.6819 -102.4433 287° West 442 509 32,000  Level Minneapolis Center
06:38PM 44.7164 -102.6083 286° West 441 507 32,000  Level Minneapolis Center
06:39PM 44.7592 -102.8064 287° West 441 507 32,000  Level Minneapolis Center
06:40PM 44.7933 -102.9703 286° West 438 504 32,000  Level Minneapolis Center
06:41PM 44.8278 -103.1344 287° West 437 503 32,000  Level Minneapolis Center
06:42PM 44.8619 -103.2972 287° West 434 499 32,000  Level Minneapolis Center
06:42PM 44.8828 -103.4022 286° West 433 498 32,000  Level Salt Lake Center
06:43PM 44.9150 -103.5586 286° West 435 501 32,000  Level Salt Lake Center
06:44PM 44.9300 -103.6386 285° West 434 499 32,000  Level Denver Center
06:44PM 44.9517 -103.7400 287° West 433 498 32,000  Level Salt Lake Center
06:45PM 44.9842 -103.8986 286° West 437 503 32,000  Level Salt Lake Center
06:46PM 45.0208 -104.0814 286° West 435 501 32,000  Level Salt Lake Center
06:47PM 45.0519 -104.2389 286° West 436 502 32,000  Level Salt Lake Center
06:53PM 45.2260 -105.1480 286° West 444 511 32,000  Level FlightAware
06:53PM 45.2440 -105.2460 285° West 441 507 32,000  Level FlightAware
06:54PM 45.2630 -105.3460 285° West 439 505 32,000  Level FlightAware
06:55PM 45.2820 -105.4460 285° West 437 503 32,000  Level FlightAware
06:55PM 45.2990 -105.5410 284° West 435 501 32,000  Level FlightAware
06:56PM 45.3160 -105.6350 284° West 438 504 32,000  Level FlightAware
06:56PM 45.3340 -105.7360 284° West 445 512 32,000  Level FlightAware
06:57PM 45.3520 -105.8390 284° West 449 517 32,000  Level FlightAware
06:58PM 45.3680 -105.9400 283° West 453 521 32,000  Level FlightAware
06:58PM 45.3850 -106.0420 283° West 450 518 32,000 -1,200 Level FlightAware
06:59PM 45.4010 -106.1360 284° West 448 516 30,700 -2,340 Descending FlightAware
06:59PM 45.4170 -106.2330 283° West 444 511 29,400 -2,700 Descending FlightAware
07:00PM 45.4350 -106.3420 283° West 448 516 27,500 -2,760 Descending FlightAware
07:00PM 45.4500 -106.4360 283° West 442 509 26,200 -2,280 Descending FlightAware
07:01PM 45.4660 -106.5370 283° West 433 498 24,900 -2,280 Descending FlightAware
07:02PM 45.4810 -106.6310 283° West 428 493 23,600 -2,220 Descending FlightAware
07:02PM 45.4970 -106.7310 283° West 416 479 22,300 -2,280 Descending FlightAware
07:03PM 45.5170 -106.8170 288° West 421 484 21,000 -2,100 Descending FlightAware
07:03PM 45.5490 -106.9080 297° West 409 471 19,900 -1,500 Descending FlightAware
07:04PM 45.5790 -106.9930 297° West 389 448 19,200 -1,080 Descending FlightAware
07:05PM 45.6040 -107.0600 298° West 384 442 18,700 -1,620 Descending FlightAware
07:05PM 45.6360 -107.1440 299° West 384 442 17,400 -1,920 Descending FlightAware
07:06PM 45.6660 -107.2240 298° West 380 437 16,400 -1,380 Descending FlightAware
07:06PM 45.6970 -107.2890 304° West 382 440 15,900 -1,440 Descending FlightAware
07:07PM 45.7330 -107.3580 307° West 379 436 14,900 -1,860 Descending FlightAware
07:07PM 45.7750 -107.4290 310° West 369 425 13,700 -2,100 Descending FlightAware
07:08PM 45.8060 -107.4780 312° West 365 420 12,600 -2,040 Descending FlightAware
07:09PM 45.8530 -107.5390 318° Northwest 350 403 11,500 -1,800 Descending FlightAware
07:09PM 45.8620 -107.5600 302° West 340 391 11,200 -2,160 Descending FlightAware
07:09PM 45.8720 -107.5950 292° West 327 376 10,500 -2,580 Descending FlightAware
07:09PM 45.8730 -107.6160 274° West 322 371 10,000 -1,920 Descending FlightAware
07:10PM 45.8700 -107.6580 264° West 317 365 9,500 -1,680 Descending FlightAware
07:10PM 45.8770 -107.7070 282° West 318 366 8,800 -1,500 Descending FlightAware
07:10PM 45.8840 -107.7450 285° West 305 351 8,500 -840 Descending FlightAware
07:11PM 45.8900 -107.7800 284° West 296 341 8,300 -360 Descending FlightAware
07:11PM 45.9010 -107.8380 285° West 284 327 8,200 -120 Descending FlightAware
07:11PM 45.9080 -107.8770 284° West 284 327 8,200  Level FlightAware
07:12PM 45.9180 -107.9250 287° West 300 345 8,200  Level FlightAware
07:12PM 45.9260 -107.9610 288° West 298 343 8,200  Level FlightAware
07:12PM 45.9340 -107.9990 287° West 300 345 8,200  Level FlightAware
07:13PM 45.9400 -108.0280 287° West 300 345 8,200  Level FlightAware
07:13PM 45.9480 -108.0680 286° West 298 343 8,200  Level FlightAware
07:13PM 45.9560 -108.1060 287° West 298 343 8,200  Level FlightAware
07:14PM 45.9650 -108.1520 286° West 301 346 8,200  Level FlightAware
07:14PM 45.9730 -108.1880 288° West 303 349 8,200  Level FlightAware
07:14PM 45.9760 -108.2140 279° West 298 343 8,200 -840 Level FlightAware
07:15PM 45.9750 -108.2610 268° West 290 334 7,700 -1,260 Descending FlightAware
07:15PM 45.9740 -108.2970 268° West 288 331 7,300 -1,260 Descending FlightAware
07:15PM 45.9720 -108.3370 266° West 286 329 6,900 -720 Descending FlightAware
07:16PM 45.9700 -108.3920 267° West 285 328 6,700 -360 Descending FlightAware
07:17PM 45.9610 -108.5590 266° West 254 292 6,200 -300 Descending FlightAware
07:18PM 45.9590 -108.5870 264° West 241 277 6,200  Level FlightAware
07:18PM 45.9540 -108.6160 256° West 233 268 6,200  Level FlightAware
07:18PM 45.9460 -108.6440 248° West 225 259 6,200  Level FlightAware
07:19PM 45.9410 -108.6560 239° Southwest 222 255 6,200  Level FlightAware
07:19PM 45.9320 -108.6710 229° Southwest 211 243 6,200 180 Level FlightAware
07:19PM 45.9220 -108.6830 220° Southwest 197 227 6,300  Climbing FlightAware
07:19PM 45.9080 -108.6970 215° Southwest 192 221 6,200  Descending FlightAware
07:20PM 45.8910 -108.7110 210° Southwest 166 191 6,300 -180 Climbing FlightAware
07:20PM 45.8810 -108.7170 203° Southwest 157 181 6,100 -900 Descending FlightAware
07:20PM 45.8770 -108.7180 190° South 154 177 6,000 -420 Descending FlightAware
07:20PM 45.8710 -108.7180 180° South 148 170 6,000  Level FlightAware
07:20PM 45.8680 -108.7170 167° South 143 165 6,000 -600 Level FlightAware
07:20PM 45.8640 -108.7150 161° South 134 154 5,900 -420 Descending FlightAware
07:21PM 45.8590 -108.7120 157° South 129 148 5,900  Level FlightAware
07:21PM 45.8570 -108.7090 134° Southeast 129 148 5,900  Level FlightAware
07:21PM 45.8540 -108.7030 126° Southeast 130 150 5,900 -420 Level FlightAware
07:21PM 45.8520 -108.6970 116° Southeast 134 154 5,800 -780 Descending FlightAware
07:21PM 45.8490 -108.6850 110° East 136 157 5,600 -360 Descending FlightAware
07:22PM 45.8410 -108.6560 112° Southeast 135 155 5,500 -840 Descending FlightAware
07:22PM 45.8328 -108.6267 112° Southeast 135 155 4,600 -1,020 Descending Salt Lake Center
07:23PM 45.8178 -108.5728 112° Southeast 137 158 3,900 -720 Descending Salt Lake Center